createdAt,value
2019-01-21T00:00:23.713Z,-0.20
2019-01-21T00:02:52.844Z,-0.20
2019-01-21T00:05:21.757Z,-0.20
2019-01-21T00:07:50.733Z,-0.20
2019-01-21T00:10:19.626Z,-0.30
2019-01-21T00:12:48.533Z,-0.30
2019-01-21T00:15:17.573Z,-0.30
2019-01-21T00:17:46.508Z,-0.30
2019-01-21T00:20:15.577Z,-0.30
2019-01-21T00:22:44.877Z,-0.30
2019-01-21T00:25:14.083Z,-0.30
2019-01-21T00:27:42.979Z,-0.40
2019-01-21T00:30:12.343Z,-0.40
2019-01-21T00:32:41.356Z,-0.40
2019-01-21T00:35:10.413Z,-0.40
2019-01-21T00:37:39.445Z,-0.50
2019-01-21T00:40:10.349Z,-0.40
2019-01-21T00:42:39.210Z,-0.50
2019-01-21T00:45:08.368Z,-0.50
2019-01-21T00:47:37.398Z,-0.50
2019-01-21T00:50:07.009Z,-0.40
2019-01-21T00:52:36.021Z,-0.40
2019-01-21T00:55:06.286Z,-0.50
2019-01-21T00:57:35.297Z,-0.50
2019-01-21T01:00:06.776Z,-0.50
2019-01-21T01:02:35.837Z,-0.50
2019-01-21T01:05:05.984Z,-0.50
2019-01-21T01:07:34.936Z,-0.50
2019-01-21T01:10:04.938Z,-0.50
2019-01-21T01:12:33.897Z,-0.60
2019-01-21T01:15:02.916Z,-0.50
2019-01-21T01:17:37.086Z,-0.60
2019-01-21T01:20:02.804Z,-0.50
2019-01-21T01:22:31.744Z,-0.50
2019-01-21T01:25:00.905Z,-0.50
2019-01-21T01:27:29.840Z,-0.60
2019-01-21T01:29:58.956Z,-0.60
2019-01-21T01:32:28.077Z,-0.50
2019-01-21T01:34:57.037Z,-0.50
2019-01-21T01:37:26.045Z,-0.50
2019-01-21T01:39:55.020Z,-0.50
2019-01-21T01:42:24.044Z,-0.60
2019-01-21T01:44:53.125Z,-0.50
2019-01-21T01:47:22.239Z,-0.60
2019-01-21T01:49:51.217Z,-0.60
2019-01-21T01:52:20.663Z,-0.60
2019-01-21T01:54:50.480Z,-0.50
2019-01-21T01:57:19.484Z,-0.60
2019-01-21T01:59:48.569Z,-0.60
2019-01-21T02:02:17.597Z,-0.60
2019-01-21T02:04:46.561Z,-0.60
2019-01-21T02:07:15.638Z,-0.60
2019-01-21T02:09:44.629Z,-0.60
2019-01-21T02:12:13.655Z,-0.70
2019-01-21T02:14:42.616Z,-0.70
2019-01-21T02:17:11.999Z,-0.70
2019-01-21T02:19:42.847Z,-0.70
2019-01-21T02:22:13.251Z,-0.70
2019-01-21T02:24:43.479Z,-0.70
2019-01-21T02:27:18.502Z,-0.70
2019-01-21T02:30:26.228Z,-0.70
2019-01-21T02:33:39.189Z,-0.70
2019-01-21T02:36:40.040Z,-0.70
2019-01-21T02:39:39.012Z,-0.70
2019-01-21T02:42:34.702Z,-0.80
2019-01-21T02:45:30.828Z,-0.70
2019-01-21T02:48:46.680Z,-0.80
2019-01-21T02:52:00.304Z,-0.70
2019-01-21T02:54:55.874Z,-0.70
2019-01-21T02:58:14.868Z,-0.80
2019-01-21T03:01:16.442Z,-0.80
2019-01-21T03:03:59.408Z,-0.80
2019-01-21T03:07:04.137Z,-0.80
2019-01-21T03:10:14.369Z,-0.80
2019-01-21T03:13:24.094Z,-0.80
2019-01-21T03:16:26.621Z,-0.80
2019-01-21T03:19:32.715Z,-0.80
2019-01-21T03:22:51.833Z,-0.80
2019-01-21T03:25:49.051Z,-0.90
2019-01-21T03:29:03.417Z,-0.80
2019-01-21T03:32:24.404Z,-0.90
2019-01-21T03:35:19.367Z,-0.90
2019-01-21T03:38:34.534Z,-0.90
2019-01-21T03:41:41.914Z,-0.90
2019-01-21T03:44:37.126Z,-0.90
2019-01-21T03:47:30.774Z,-1.00
2019-01-21T03:50:43.165Z,-1.00
2019-01-21T03:53:58.212Z,-1.00
2019-01-21T03:56:39.040Z,-1.00
2019-01-21T03:59:23.302Z,-1.10
2019-01-21T04:02:41.912Z,-1.00
2019-01-21T04:06:01.785Z,-1.10
2019-01-21T04:09:21.217Z,-1.10
2019-01-21T04:12:35.127Z,-1.10
2019-01-21T04:15:41.301Z,-1.10
2019-01-21T04:18:50.391Z,-1.10
2019-01-21T04:21:58.071Z,-1.10
2019-01-21T04:24:52.340Z,-1.10
2019-01-21T04:28:20.653Z,-1.10
2019-01-21T04:31:28.949Z,-1.10
2019-01-21T04:34:24.318Z,-1.10
2019-01-21T04:37:41.604Z,-1.10
2019-01-21T04:40:50.896Z,-1.10
2019-01-21T04:44:34.789Z,-1.10
2019-01-21T04:47:30.205Z,-1.20
2019-01-21T04:50:29.052Z,-1.20
2019-01-21T04:53:16.984Z,-1.20
2019-01-21T04:56:32.504Z,-1.20
2019-01-21T04:59:26.838Z,-1.20
2019-01-21T05:02:46.238Z,-1.20
2019-01-21T05:05:41.878Z,-1.20
2019-01-21T05:08:50.846Z,-1.20
2019-01-21T05:11:58.956Z,-1.20
2019-01-21T05:14:51.142Z,-1.30
2019-01-21T05:17:40.726Z,-1.30
2019-01-21T05:20:49.760Z,-1.30
2019-01-21T05:23:43.665Z,-1.30
2019-01-21T05:26:49.561Z,-1.30
2019-01-21T05:29:38.049Z,-1.30
2019-01-21T05:32:53.110Z,-1.30
2019-01-21T05:36:12.514Z,-1.30
2019-01-21T05:38:57.257Z,-1.30
2019-01-21T05:41:41.521Z,-1.30
2019-01-21T05:44:29.578Z,-1.30
2019-01-21T05:47:35.650Z,-1.30
2019-01-21T05:50:30.800Z,-1.30
2019-01-21T05:53:53.371Z,-1.30
2019-01-21T05:56:56.276Z,-1.30
2019-01-21T06:00:27.937Z,-1.30
2019-01-21T06:03:29.072Z,-1.30
2019-01-21T06:06:16.100Z,-1.30
2019-01-21T06:09:37.400Z,-1.30
2019-01-21T06:12:16.856Z,-1.20
2019-01-21T06:15:12.793Z,-1.20
2019-01-21T06:18:32.347Z,-1.20
2019-01-21T06:21:39.664Z,-1.20
2019-01-21T06:24:34.853Z,-1.20
2019-01-21T06:27:49.303Z,-1.20
2019-01-21T06:30:59.337Z,-1.20
2019-01-21T06:33:40.048Z,-1.20
2019-01-21T06:36:25.010Z,-1.20
2019-01-21T06:39:07.328Z,-1.10
2019-01-21T06:42:13.272Z,-1.10
2019-01-21T06:45:25.181Z,-1.10
2019-01-21T06:48:27.517Z,-1.10
2019-01-21T06:51:38.201Z,-1.10
2019-01-21T06:54:42.017Z,-1.10
2019-01-21T06:58:19.758Z,-1.10
2019-01-21T07:01:41.362Z,-1.10
2019-01-21T07:04:34.213Z,-1.10
2019-01-21T07:07:31.950Z,-1.10
2019-01-21T07:10:26.623Z,-1.10
2019-01-21T07:17:09.803Z,-1.00
2019-01-21T07:20:13.580Z,-1.00
2019-01-21T07:23:11.907Z,-1.00
2019-01-21T07:26:27.101Z,-1.00
2019-01-21T07:29:35.188Z,-0.90
2019-01-21T07:32:57.778Z,-0.90
2019-01-21T07:36:04.320Z,-0.90
2019-01-21T07:39:08.876Z,-0.90
2019-01-21T07:42:00.391Z,-0.90
2019-01-21T07:45:06.662Z,-0.90
2019-01-21T07:48:05.259Z,-0.90
2019-01-21T07:51:03.505Z,-0.80
2019-01-21T07:54:19.930Z,-0.80
2019-01-21T07:57:20.013Z,-0.80
2019-01-21T08:00:32.453Z,-0.80
2019-01-21T08:03:38.580Z,-0.80
2019-01-21T08:06:37.046Z,-0.70
2019-01-21T08:09:50.404Z,-0.70
2019-01-21T08:13:18.920Z,-0.70
2019-01-21T08:16:25.337Z,-0.70
2019-01-21T08:19:37.633Z,-0.60
2019-01-21T08:22:56.280Z,-0.60
2019-01-21T08:25:56.757Z,-0.60
2019-01-21T08:28:58.439Z,-0.50
2019-01-21T08:32:00.871Z,-0.50
2019-01-21T08:35:35.293Z,-0.50
2019-01-21T08:38:41.440Z,-0.40
2019-01-21T08:41:35.634Z,-0.40
2019-01-21T08:44:48.828Z,-0.30
2019-01-21T08:47:55.611Z,-0.30
2019-01-21T08:50:59.904Z,-0.30
2019-01-21T08:53:49.517Z,-0.20
2019-01-21T08:57:20.875Z,-0.10
2019-01-21T09:00:18.316Z,-0.10
2019-01-21T09:03:40.258Z,0.00
2019-01-21T09:06:36.619Z,0.10
2019-01-21T09:09:33.065Z,0.10
2019-01-21T09:12:21.533Z,0.20
2019-01-21T09:15:13.920Z,0.30
2019-01-21T09:18:01.058Z,0.30
2019-01-21T09:21:02.138Z,0.40
2019-01-21T09:24:05.717Z,0.50
2019-01-21T09:27:18.508Z,0.50
2019-01-21T09:30:27.477Z,0.70
2019-01-21T09:33:43.652Z,0.70
2019-01-21T09:37:05.976Z,0.80
2019-01-21T09:40:01.977Z,0.90
2019-01-21T09:43:07.702Z,1.00
2019-01-21T09:46:06.460Z,1.00
2019-01-21T09:48:33.955Z,1.10
2019-01-21T09:51:06.153Z,1.20
2019-01-21T09:53:36.406Z,1.30
2019-01-21T09:56:06.635Z,1.40
2019-01-21T09:58:35.902Z,1.40
2019-01-21T10:01:05.721Z,1.50
2019-01-21T10:03:35.072Z,1.60
2019-01-21T10:06:09.169Z,1.70
2019-01-21T10:09:16.558Z,1.70
2019-01-21T10:12:14.897Z,1.80
2019-01-21T10:15:34.061Z,1.90
2019-01-21T10:18:27.026Z,2.00
2019-01-21T10:21:21.032Z,2.00
2019-01-21T10:24:26.152Z,2.20
2019-01-21T10:27:40.386Z,2.20
2019-01-21T10:30:46.052Z,2.30
2019-01-21T10:33:47.006Z,2.30
2019-01-21T10:36:56.931Z,2.40
2019-01-21T10:40:18.957Z,2.50
2019-01-21T10:43:39.911Z,2.60
2019-01-21T10:46:44.869Z,2.70
2019-01-21T10:49:57.538Z,2.70
2019-01-21T10:52:40.672Z,2.80
2019-01-21T10:55:52.140Z,2.80
2019-01-21T10:59:17.901Z,2.90
2019-01-21T11:02:29.701Z,2.90
2019-01-21T11:05:19.312Z,3.00
2019-01-21T11:08:24.520Z,3.10
2019-01-21T11:11:33.344Z,3.20
2019-01-21T11:14:47.245Z,3.20
2019-01-21T11:17:34.551Z,3.30
2019-01-21T11:20:50.531Z,3.30
2019-01-21T11:24:13.560Z,3.40
2019-01-21T11:27:14.129Z,3.50
2019-01-21T11:30:05.613Z,3.60
2019-01-21T11:33:07.572Z,3.60
2019-01-21T11:36:19.659Z,3.70
2019-01-21T11:39:08.667Z,3.80
2019-01-21T11:42:07.210Z,3.80
2019-01-21T11:45:19.352Z,3.90
2019-01-21T11:48:19.480Z,4.00
2019-01-21T11:50:59.245Z,4.00
2019-01-21T11:54:18.621Z,4.10
2019-01-21T11:57:18.813Z,4.10
2019-01-21T12:00:06.368Z,4.10
2019-01-21T12:02:59.688Z,4.20
2019-01-21T12:05:49.603Z,4.20
2019-01-21T12:08:55.757Z,4.30
2019-01-21T12:11:31.239Z,4.30
2019-01-21T12:14:43.340Z,4.40
2019-01-21T12:17:50.914Z,4.40
2019-01-21T12:20:58.204Z,4.50
2019-01-21T12:23:58.277Z,4.50
2019-01-21T12:26:59.606Z,4.60
2019-01-21T12:30:11.524Z,4.60
2019-01-21T12:33:23.385Z,4.70
2019-01-21T12:35:56.921Z,4.80
2019-01-21T12:38:49.864Z,4.80
2019-01-21T12:41:41.895Z,4.80
2019-01-21T12:44:57.360Z,4.80
2019-01-21T12:47:44.716Z,4.90
2019-01-21T12:51:01.369Z,4.90
2019-01-21T12:53:45.576Z,5.00
2019-01-21T12:57:06.038Z,5.00
2019-01-21T13:00:13.012Z,5.10
2019-01-21T13:03:08.968Z,5.10
2019-01-21T13:06:00.933Z,5.10
2019-01-21T13:08:38.883Z,5.20
2019-01-21T13:11:26.224Z,5.20
2019-01-21T13:14:41.888Z,5.20
2019-01-21T13:17:46.449Z,5.30
2019-01-21T13:20:34.117Z,5.30
2019-01-21T13:23:37.245Z,5.30
2019-01-21T13:26:43.870Z,5.30
2019-01-21T13:29:18.057Z,5.40
2019-01-21T13:32:30.161Z,5.40
2019-01-21T13:35:36.222Z,5.40
2019-01-21T13:38:28.484Z,5.50
2019-01-21T13:41:42.814Z,5.50
2019-01-21T13:44:32.609Z,5.50
2019-01-21T13:47:42.835Z,5.50
2019-01-21T13:50:24.618Z,5.50
2019-01-21T13:53:36.879Z,5.60
2019-01-21T13:56:25.746Z,5.70
2019-01-21T13:59:40.460Z,5.70
2019-01-21T14:02:29.921Z,5.70
2019-01-21T14:05:42.687Z,5.80
2019-01-21T14:08:36.263Z,5.80
2019-01-21T14:11:32.361Z,5.70
2019-01-21T14:14:12.956Z,5.70
2019-01-21T14:17:12.228Z,5.60
2019-01-21T14:20:16.874Z,5.50
2019-01-21T14:23:42.245Z,5.50
2019-01-21T14:26:56.005Z,5.40
2019-01-21T14:29:43.041Z,5.30
2019-01-21T14:32:57.880Z,5.20
2019-01-21T14:35:57.998Z,5.20
2019-01-21T14:39:05.303Z,5.20
2019-01-21T14:42:04.954Z,5.20
2019-01-21T14:45:10.347Z,5.10
2019-01-21T14:48:06.170Z,5.10
2019-01-21T14:51:28.645Z,5.20
2019-01-21T14:54:22.143Z,5.10
2019-01-21T14:57:23.863Z,5.20
2019-01-21T15:00:34.092Z,5.20
2019-01-21T15:03:16.279Z,5.20
2019-01-21T15:06:34.909Z,5.20
2019-01-21T15:09:37.315Z,5.20
2019-01-21T15:12:29.629Z,5.20
2019-01-21T15:15:48.036Z,5.30
2019-01-21T15:18:43.121Z,5.20
2019-01-21T15:21:18.883Z,5.20
2019-01-21T15:24:01.645Z,5.20
2019-01-21T15:26:56.072Z,5.20
2019-01-21T15:29:46.419Z,5.10
2019-01-21T15:32:30.282Z,5.10
2019-01-21T15:35:38.510Z,5.10
2019-01-21T15:38:47.193Z,5.10
2019-01-21T15:42:00.824Z,5.10
2019-01-21T15:44:58.058Z,5.10
2019-01-21T15:47:43.286Z,5.00
2019-01-21T15:50:46.357Z,5.00
2019-01-21T15:53:37.346Z,4.90
2019-01-21T15:56:24.093Z,4.80
2019-01-21T15:59:42.352Z,4.80
2019-01-21T16:02:22.465Z,4.70
2019-01-21T16:05:09.670Z,4.70
2019-01-21T16:07:52.681Z,4.70
2019-01-21T16:10:30.593Z,4.60
2019-01-21T16:13:30.147Z,4.70
2019-01-21T16:16:22.417Z,4.60
2019-01-21T16:19:04.529Z,4.60
2019-01-21T16:22:05.405Z,4.60
2019-01-21T16:24:55.433Z,4.60
2019-01-21T16:27:35.343Z,4.50
2019-01-21T16:30:15.356Z,4.50
2019-01-21T16:33:40.668Z,4.50
2019-01-21T16:36:35.067Z,4.50
2019-01-21T16:39:15.332Z,4.40
2019-01-21T16:42:19.655Z,4.40
2019-01-21T16:44:48.789Z,4.40
2019-01-21T16:47:17.875Z,4.30
2019-01-21T16:49:46.924Z,4.30
2019-01-21T16:52:16.820Z,4.30
2019-01-21T16:54:45.793Z,4.20
2019-01-21T16:57:14.864Z,4.20
2019-01-21T16:59:44.226Z,4.20
2019-01-21T17:02:13.748Z,4.10
2019-01-21T17:04:42.850Z,4.10
2019-01-21T17:07:11.962Z,4.10
2019-01-21T17:09:41.200Z,4.10
2019-01-21T17:12:10.470Z,4.00
2019-01-21T17:14:40.937Z,4.00
2019-01-21T17:19:40.245Z,3.90
2019-01-21T17:22:09.346Z,3.90
2019-01-21T17:24:38.470Z,3.90
2019-01-21T17:27:07.577Z,3.80
2019-01-21T17:29:37.118Z,3.80
2019-01-21T17:32:07.772Z,3.70
2019-01-21T17:34:39.525Z,3.70
2019-01-21T17:37:10.101Z,3.70
2019-01-21T17:39:39.542Z,3.60
2019-01-21T17:42:09.142Z,3.60
2019-01-21T17:44:40.329Z,3.60
2019-01-21T17:47:09.813Z,3.60
2019-01-21T17:49:39.267Z,3.60
2019-01-21T17:52:08.643Z,3.60
2019-01-21T17:54:41.985Z,3.60
2019-01-21T17:57:12.822Z,3.60
2019-01-21T17:59:41.889Z,3.60
2019-01-21T18:23:51.487Z,3.20
2019-01-21T18:26:20.564Z,3.20
2019-01-21T18:28:49.599Z,3.20
2019-01-21T18:31:18.694Z,3.20
2019-01-21T18:33:47.712Z,3.20
2019-01-21T18:36:16.849Z,3.10
2019-01-21T18:38:45.931Z,3.20
2019-01-21T18:41:15.028Z,3.10
2019-01-21T18:43:44.232Z,3.10
2019-01-21T18:46:15.759Z,3.10
2019-01-21T18:48:44.853Z,3.10
2019-01-21T18:51:13.873Z,3.10
2019-01-21T18:53:43.013Z,3.10
2019-01-21T18:56:12.645Z,3.10
2019-01-21T18:58:41.804Z,3.10
2019-01-21T19:01:10.949Z,3.10
2019-01-21T19:03:40.082Z,3.10
2019-01-21T19:06:09.511Z,3.10
2019-01-21T19:08:38.908Z,3.10
2019-01-21T19:11:08.048Z,3.10
2019-01-21T19:13:37.128Z,3.00
2019-01-21T19:16:06.266Z,3.00
2019-01-21T19:18:35.212Z,3.00
2019-01-21T19:21:04.370Z,3.00
2019-01-21T19:23:33.392Z,2.90
2019-01-21T19:26:03.848Z,2.90
2019-01-21T19:28:33.021Z,3.00
2019-01-21T19:31:02.024Z,3.00
2019-01-21T19:33:32.048Z,3.00
2019-01-21T19:36:01.109Z,3.00
2019-01-21T19:38:30.141Z,2.90
2019-01-21T19:40:59.174Z,2.90
2019-01-21T19:43:28.166Z,2.90
2019-01-21T19:45:57.263Z,2.90
2019-01-21T19:48:26.338Z,2.90
2019-01-21T19:50:56.154Z,2.90
2019-01-21T19:53:25.376Z,2.80
2019-01-21T19:55:54.446Z,2.80
2019-01-21T19:58:23.542Z,2.80
2019-01-21T20:00:53.025Z,2.80
2019-01-21T20:03:22.358Z,2.80
2019-01-21T20:05:51.438Z,2.80
2019-01-21T20:08:20.750Z,2.90
2019-01-21T20:10:49.758Z,2.80
2019-01-21T20:13:19.199Z,2.80
2019-01-21T20:15:48.347Z,2.80
2019-01-21T20:18:17.454Z,2.80
2019-01-21T20:20:46.700Z,2.90
2019-01-21T20:23:15.713Z,2.90
2019-01-21T20:25:44.784Z,2.90
2019-01-21T20:28:13.844Z,2.90
2019-01-21T20:30:42.957Z,2.90
2019-01-21T20:33:12.006Z,2.90
2019-01-21T20:35:41.346Z,2.90
2019-01-21T20:38:10.739Z,2.90
2019-01-21T20:40:40.410Z,3.00
2019-01-21T20:43:09.460Z,3.00
2019-01-21T20:45:39.023Z,2.90
2019-01-21T20:48:08.111Z,2.90
2019-01-21T20:50:37.209Z,2.90
2019-01-21T20:53:06.348Z,2.90
2019-01-21T20:55:35.622Z,2.90
2019-01-21T20:58:04.958Z,2.90
2019-01-21T21:00:35.727Z,2.80
2019-01-21T21:03:05.009Z,2.80
2019-01-21T21:05:34.219Z,2.80
2019-01-21T21:08:03.278Z,2.80
2019-01-21T21:10:32.362Z,2.80
2019-01-21T21:13:01.768Z,2.80
2019-01-21T21:15:32.589Z,2.80
2019-01-21T21:18:01.634Z,2.80
2019-01-21T21:20:30.714Z,2.80
2019-01-21T21:22:59.784Z,2.80
2019-01-21T21:25:28.761Z,2.70
2019-01-21T21:27:57.735Z,2.70
2019-01-21T21:30:31.726Z,2.70
2019-01-21T21:33:00.973Z,2.70
2019-01-21T21:35:30.053Z,2.70
2019-01-21T21:37:59.142Z,2.70
2019-01-21T21:40:28.282Z,2.70
2019-01-21T21:42:57.506Z,2.70
2019-01-21T21:45:27.935Z,2.70
2019-01-21T21:48:00.835Z,2.60
2019-01-21T21:50:30.387Z,2.60
2019-01-21T21:52:59.570Z,2.60
2019-01-21T21:55:29.686Z,2.60
2019-01-21T21:57:59.209Z,2.60
2019-01-21T22:00:29.277Z,2.60
2019-01-21T22:02:58.528Z,2.60
2019-01-21T22:05:27.954Z,2.60
2019-01-21T22:07:56.908Z,2.50
2019-01-21T22:10:32.867Z,2.40
2019-01-21T22:13:03.098Z,2.40
2019-01-21T22:15:44.544Z,2.40
2019-01-21T22:18:13.654Z,2.40
2019-01-21T22:20:42.912Z,2.30
2019-01-21T22:23:12.109Z,2.30
2019-01-21T22:25:41.172Z,2.30
2019-01-21T22:28:10.137Z,2.20
2019-01-21T22:30:39.158Z,2.20
2019-01-21T22:33:08.571Z,2.20
2019-01-21T22:35:39.247Z,2.10
2019-01-21T22:38:08.311Z,2.10
2019-01-21T22:40:37.425Z,2.10
2019-01-21T22:43:07.239Z,2.10
2019-01-21T22:50:58.616Z,2.20
2019-01-21T22:53:26.317Z,2.10
2019-01-21T22:56:01.148Z,2.10
2019-01-21T22:58:30.157Z,2.10
2019-01-21T23:04:50.969Z,2.00
2019-01-21T23:07:20.203Z,2.00
2019-01-21T23:09:49.381Z,2.00
2019-01-21T23:12:18.665Z,2.00
2019-01-21T23:14:47.637Z,2.00
2019-01-21T23:17:16.692Z,2.00
2019-01-21T23:19:45.868Z,1.90
2019-01-21T23:22:15.149Z,2.00
2019-01-21T23:24:44.145Z,2.00
2019-01-21T23:27:13.142Z,1.90
2019-01-21T23:29:42.226Z,1.90
2019-01-21T23:32:11.452Z,1.90
2019-01-21T23:34:44.170Z,1.90
2019-01-21T23:37:11.265Z,1.90
2019-01-21T23:39:40.336Z,1.90
2019-01-21T23:42:09.386Z,1.80
2019-01-21T23:44:38.545Z,1.80
2019-01-21T23:47:07.613Z,1.80
2019-01-21T23:49:36.688Z,1.80
2019-01-21T23:52:05.857Z,1.80
2019-01-21T23:54:34.895Z,1.80
2019-01-21T23:57:04.045Z,1.70
2019-01-21T23:59:33.074Z,1.70
